sensor_id;sensor_type;location;lat;lon;timestamp;P1;durP1;ratioP1;P2;durP2;ratioP2
22774;SDS011;11554;51.106;3.684;2022-09-01T00:00:03;5.20;;;2.10;;
22774;SDS011;11554;51.106;3.684;2022-09-01T00:05:00;5.20;;;2.10;;
22774;SDS011;11554;51.106;3.684;2022-09-01T00:10:02;3.80;;;1.80;;
22774;SDS011;11554;51.106;3.684;2022-09-01T00:15:00;3.80;;;1.80;;
22774;SDS011;11554;51.106;3.684;2022-09-01T00:20:00;4.20;;;1.70;;
22774;SDS011;11554;51.106;3.684;2022-09-01T00:25:00;4.20;;;1.70;;
22774;SDS011;11554;51.106;3.684;2022-09-01T00:30:00;5.60;;;1.60;;
22774;SDS011;11554;51.106;3.684;2022-09-01T00:35:00;5.60;;;1.60;;
22774;SDS011;11554;51.106;3.684;2022-09-01T00:40:00;5.30;;;1.70;;
22774;SDS011;11554;51.106;3.684;2022-09-01T00:45:00;5.30;;;1.70;;
22774;SDS011;11554;51.106;3.684;2022-09-01T00:50:02;7.40;;;1.90;;
22774;SDS011;11554;51.106;3.684;2022-09-01T00:55:07;7.40;;;1.90;;
22774;SDS011;11554;51.106;3.684;2022-09-01T01:00:05;9.60;;;3.10;;
22774;SDS011;11554;51.106;3.684;2022-09-01T01:05:00;9.60;;;3.10;;
22774;SDS011;11554;51.106;3.684;2022-09-01T01:10:00;9.40;;;4.20;;
22774;SDS011;11554;51.106;3.684;2022-09-01T01:15:00;9.40;;;4.20;;
22774;SDS011;11554;51.106;3.684;2022-09-01T01:20:01;6.40;;;2.70;;
22774;SDS011;11554;51.106;3.684;2022-09-01T01:25:00;6.40;;;2.70;;
22774;SDS011;11554;51.106;3.684;2022-09-01T01:30:00;8.00;;;2.60;;
22774;SDS011;11554;51.106;3.684;2022-09-01T01:35:00;8.00;;;2.60;;
22774;SDS011;11554;51.106;3.684;2022-09-01T01:40:00;9.60;;;3.60;;
22774;SDS011;11554;51.106;3.684;2022-09-01T01:45:00;9.60;;;3.60;;
22774;SDS011;11554;51.106;3.684;2022-09-01T01:50:00;9.50;;;3.70;;
22774;SDS011;11554;51.106;3.684;2022-09-01T01:55:00;9.50;;;3.70;;
22774;SDS011;11554;51.106;3.684;2022-09-01T02:00:00;10.60;;;3.80;;
22774;SDS011;11554;51.106;3.684;2022-09-01T02:05:00;10.60;;;3.80;;
22774;SDS011;11554;51.106;3.684;2022-09-01T02:10:00;7.40;;;2.50;;
22774;SDS011;11554;51.106;3.684;2022-09-01T02:15:00;7.40;;;2.50;;
22774;SDS011;11554;51.106;3.684;2022-09-01T02:20:00;4.30;;;1.50;;
22774;SDS011;11554;51.106;3.684;2022-09-01T02:25:00;4.30;;;1.50;;
22774;SDS011;11554;51.106;3.684;2022-09-01T02:30:00;4.80;;;1.80;;
22774;SDS011;11554;51.106;3.684;2022-09-01T02:35:00;4.80;;;1.80;;
22774;SDS011;11554;51.106;3.684;2022-09-01T02:40:00;3.00;;;1.50;;
22774;SDS011;11554;51.106;3.684;2022-09-01T02:45:00;3.00;;;1.50;;
22774;SDS011;11554;51.106;3.684;2022-09-01T02:50:00;3.40;;;1.50;;
22774;SDS011;11554;51.106;3.684;2022-09-01T02:55:00;3.40;;;1.50;;
22774;SDS011;11554;51.106;3.684;2022-09-01T03:00:01;4.90;;;1.70;;
22774;SDS011;11554;51.106;3.684;2022-09-01T03:05:00;4.90;;;1.70;;
22774;SDS011;11554;51.106;3.684;2022-09-01T03:10:00;3.60;;;1.70;;
22774;SDS011;11554;51.106;3.684;2022-09-01T03:15:00;3.60;;;1.70;;
22774;SDS011;11554;51.106;3.684;2022-09-01T03:20:00;3.20;;;1.70;;
22774;SDS011;11554;51.106;3.684;2022-09-01T03:25:00;3.20;;;1.70;;
22774;SDS011;11554;51.106;3.684;2022-09-01T03:30:00;3.50;;;1.70;;
22774;SDS011;11554;51.106;3.684;2022-09-01T03:35:00;3.50;;;1.70;;
22774;SDS011;11554;51.106;3.684;2022-09-01T03:40:00;3.40;;;1.90;;
22774;SDS011;11554;51.106;3.684;2022-09-01T03:45:00;3.40;;;1.90;;
22774;SDS011;11554;51.106;3.684;2022-09-01T03:50:00;6.40;;;2.10;;
22774;SDS011;11554;51.106;3.684;2022-09-01T03:55:00;6.40;;;2.10;;
22774;SDS011;11554;51.106;3.684;2022-09-01T04:00:00;5.80;;;2.30;;
22774;SDS011;11554;51.106;3.684;2022-09-01T04:05:00;5.80;;;2.30;;
22774;SDS011;11554;51.106;3.684;2022-09-01T04:10:00;7.20;;;2.90;;
22774;SDS011;11554;51.106;3.684;2022-09-01T04:15:00;7.20;;;2.90;;
22774;SDS011;11554;51.106;3.684;2022-09-01T04:20:01;8.90;;;3.40;;
22774;SDS011;11554;51.106;3.684;2022-09-01T04:25:00;8.90;;;3.40;;
22774;SDS011;11554;51.106;3.684;2022-09-01T04:30:00;5.70;;;2.60;;
22774;SDS011;11554;51.106;3.684;2022-09-01T04:35:00;5.70;;;2.60;;
22774;SDS011;11554;51.106;3.684;2022-09-01T04:40:00;8.70;;;3.20;;
22774;SDS011;11554;51.106;3.684;2022-09-01T04:45:01;8.70;;;3.20;;
22774;SDS011;11554;51.106;3.684;2022-09-01T04:50:00;5.90;;;2.80;;
22774;SDS011;11554;51.106;3.684;2022-09-01T04:55:00;5.90;;;2.80;;
22774;SDS011;11554;51.106;3.684;2022-09-01T05:00:00;6.00;;;2.90;;
22774;SDS011;11554;51.106;3.684;2022-09-01T05:05:00;6.00;;;2.90;;
22774;SDS011;11554;51.106;3.684;2022-09-01T05:10:00;7.40;;;2.60;;
22774;SDS011;11554;51.106;3.684;2022-09-01T05:15:00;7.40;;;2.60;;
22774;SDS011;11554;51.106;3.684;2022-09-01T05:20:00;5.60;;;2.50;;
22774;SDS011;11554;51.106;3.684;2022-09-01T05:25:00;5.60;;;2.50;;
22774;SDS011;11554;51.106;3.684;2022-09-01T05:30:00;6.40;;;2.80;;
22774;SDS011;11554;51.106;3.684;2022-09-01T05:35:00;6.40;;;2.80;;
22774;SDS011;11554;51.106;3.684;2022-09-01T05:40:00;8.00;;;3.00;;
22774;SDS011;11554;51.106;3.684;2022-09-01T05:45:00;8.00;;;3.00;;
22774;SDS011;11554;51.106;3.684;2022-09-01T05:50:00;10.60;;;3.30;;
22774;SDS011;11554;51.106;3.684;2022-09-01T05:55:00;10.60;;;3.30;;
22774;SDS011;11554;51.106;3.684;2022-09-01T06:00:01;6.20;;;3.10;;
22774;SDS011;11554;51.106;3.684;2022-09-01T06:05:00;6.20;;;3.10;;
22774;SDS011;11554;51.106;3.684;2022-09-01T06:10:00;12.50;;;4.10;;
22774;SDS011;11554;51.106;3.684;2022-09-01T06:15:00;12.50;;;4.10;;
22774;SDS011;11554;51.106;3.684;2022-09-01T06:20:00;11.20;;;3.80;;
22774;SDS011;11554;51.106;3.684;2022-09-01T06:25:00;11.20;;;3.80;;
22774;SDS011;11554;51.106;3.684;2022-09-01T06:30:00;10.40;;;4.30;;
22774;SDS011;11554;51.106;3.684;2022-09-01T06:35:00;10.40;;;4.30;;
22774;SDS011;11554;51.106;3.684;2022-09-01T06:40:00;11.50;;;5.00;;
22774;SDS011;11554;51.106;3.684;2022-09-01T06:45:00;11.50;;;5.00;;
22774;SDS011;11554;51.106;3.684;2022-09-01T06:50:00;9.70;;;4.80;;
22774;SDS011;11554;51.106;3.684;2022-09-01T06:55:00;9.70;;;4.80;;
22774;SDS011;11554;51.106;3.684;2022-09-01T07:00:00;10.60;;;5.20;;
22774;SDS011;11554;51.106;3.684;2022-09-01T07:05:00;10.60;;;5.20;;
22774;SDS011;11554;51.106;3.684;2022-09-01T07:10:00;10.30;;;5.10;;
22774;SDS011;11554;51.106;3.684;2022-09-01T07:15:00;10.30;;;5.10;;
22774;SDS011;11554;51.106;3.684;2022-09-01T07:20:00;10.90;;;4.90;;
22774;SDS011;11554;51.106;3.684;2022-09-01T07:25:00;10.90;;;4.90;;
22774;SDS011;11554;51.106;3.684;2022-09-01T07:30:00;11.40;;;4.60;;
22774;SDS011;11554;51.106;3.684;2022-09-01T07:35:00;11.40;;;4.60;;
22774;SDS011;11554;51.106;3.684;2022-09-01T07:40:00;11.60;;;4.40;;
22774;SDS011;11554;51.106;3.684;2022-09-01T07:45:00;11.60;;;4.40;;
22774;SDS011;11554;51.106;3.684;2022-09-01T07:50:00;8.20;;;4.60;;
22774;SDS011;11554;51.106;3.684;2022-09-01T07:55:00;8.20;;;4.60;;
22774;SDS011;11554;51.106;3.684;2022-09-01T08:00:00;11.60;;;5.70;;
22774;SDS011;11554;51.106;3.684;2022-09-01T08:05:00;11.60;;;5.70;;
22774;SDS011;11554;51.106;3.684;2022-09-01T08:10:00;10.30;;;5.90;;
22774;SDS011;11554;51.106;3.684;2022-09-01T08:15:00;10.30;;;5.90;;
22774;SDS011;11554;51.106;3.684;2022-09-01T08:20:00;11.20;;;5.70;;
22774;SDS011;11554;51.106;3.684;2022-09-01T08:25:00;11.20;;;5.70;;
22774;SDS011;11554;51.106;3.684;2022-09-01T08:30:00;12.10;;;5.50;;
22774;SDS011;11554;51.106;3.684;2022-09-01T08:35:00;12.10;;;5.50;;
22774;SDS011;11554;51.106;3.684;2022-09-01T08:40:00;9.00;;;5.40;;
22774;SDS011;11554;51.106;3.684;2022-09-01T08:45:03;9.00;;;5.40;;
22774;SDS011;11554;51.106;3.684;2022-09-01T08:50:00;9.00;;;5.40;;
22774;SDS011;11554;51.106;3.684;2022-09-01T08:55:06;9.00;;;5.40;;
22774;SDS011;11554;51.106;3.684;2022-09-01T09:00:00;9.50;;;4.90;;
22774;SDS011;11554;51.106;3.684;2022-09-01T09:05:05;9.50;;;4.90;;
22774;SDS011;11554;51.106;3.684;2022-09-01T09:10:06;7.30;;;4.70;;
22774;SDS011;11554;51.106;3.684;2022-09-01T09:15:10;7.30;;;4.70;;
22774;SDS011;11554;51.106;3.684;2022-09-01T09:20:01;7.30;;;4.70;;
22774;SDS011;11554;51.106;3.684;2022-09-01T09:25:04;7.50;;;4.10;;
22774;SDS011;11554;51.106;3.684;2022-09-01T09:30:02;7.50;;;4.10;;
22774;SDS011;11554;51.106;3.684;2022-09-01T09:35:20;9.20;;;3.90;;
22774;SDS011;11554;51.106;3.684;2022-09-01T09:40:05;6.40;;;3.70;;
22774;SDS011;11554;51.106;3.684;2022-09-01T09:45:00;6.40;;;3.70;;
22774;SDS011;11554;51.106;3.684;2022-09-01T09:50:11;8.20;;;4.30;;
22774;SDS011;11554;51.106;3.684;2022-09-01T09:55:03;8.20;;;4.30;;
22774;SDS011;11554;51.106;3.684;2022-09-01T10:00:03;8.20;;;4.30;;
22774;SDS011;11554;51.106;3.684;2022-09-01T10:05:01;8.10;;;3.90;;
22774;SDS011;11554;51.106;3.684;2022-09-01T10:10:04;8.10;;;3.90;;
22774;SDS011;11554;51.106;3.684;2022-09-01T10:15:03;9.50;;;4.10;;
22774;SDS011;11554;51.106;3.684;2022-09-01T10:20:04;9.50;;;4.10;;
22774;SDS011;11554;51.106;3.684;2022-09-01T10:25:01;10.20;;;3.90;;
22774;SDS011;11554;51.106;3.684;2022-09-01T10:30:05;10.20;;;3.90;;
22774;SDS011;11554;51.106;3.684;2022-09-01T10:35:01;5.40;;;2.80;;
22774;SDS011;11554;51.106;3.684;2022-09-01T10:40:12;5.40;;;2.80;;
22774;SDS011;11554;51.106;3.684;2022-09-01T10:45:00;4.00;;;2.50;;
22774;SDS011;11554;51.106;3.684;2022-09-01T10:50:03;4.00;;;2.50;;
22774;SDS011;11554;51.106;3.684;2022-09-01T10:55:01;5.40;;;2.50;;
22774;SDS011;11554;51.106;3.684;2022-09-01T11:05:11;4.40;;;2.40;;
22774;SDS011;11554;51.106;3.684;2022-09-01T11:10:14;4.40;;;2.40;;
22774;SDS011;11554;51.106;3.684;2022-09-01T11:15:03;5.40;;;2.70;;
22774;SDS011;11554;51.106;3.684;2022-09-01T11:20:04;5.40;;;2.70;;
22774;SDS011;11554;51.106;3.684;2022-09-01T11:25:13;6.90;;;2.60;;
22774;SDS011;11554;51.106;3.684;2022-09-01T11:30:06;6.90;;;2.60;;
22774;SDS011;11554;51.106;3.684;2022-09-01T11:35:02;7.00;;;2.30;;
22774;SDS011;11554;51.106;3.684;2022-09-01T11:40:02;7.00;;;2.30;;
22774;SDS011;11554;51.106;3.684;2022-09-01T11:45:03;6.40;;;2.30;;
22774;SDS011;11554;51.106;3.684;2022-09-01T11:50:03;6.40;;;2.30;;
22774;SDS011;11554;51.106;3.684;2022-09-01T11:55:01;7.50;;;2.60;;
22774;SDS011;11554;51.106;3.684;2022-09-01T12:00:03;7.50;;;2.60;;
22774;SDS011;11554;51.106;3.684;2022-09-01T12:05:02;4.20;;;2.20;;
22774;SDS011;11554;51.106;3.684;2022-09-01T12:10:00;4.20;;;2.20;;
22774;SDS011;11554;51.106;3.684;2022-09-01T12:15:05;7.30;;;2.80;;
22774;SDS011;11554;51.106;3.684;2022-09-01T12:20:17;7.30;;;2.80;;
22774;SDS011;11554;51.106;3.684;2022-09-01T12:25:00;5.20;;;2.30;;
22774;SDS011;11554;51.106;3.684;2022-09-01T12:30:00;5.20;;;2.30;;
22774;SDS011;11554;51.106;3.684;2022-09-01T12:35:02;4.30;;;2.10;;
22774;SDS011;11554;51.106;3.684;2022-09-01T12:40:00;4.30;;;2.10;;
22774;SDS011;11554;51.106;3.684;2022-09-01T12:45:02;3.40;;;1.80;;
22774;SDS011;11554;51.106;3.684;2022-09-01T12:50:02;3.40;;;1.80;;
22774;SDS011;11554;51.106;3.684;2022-09-01T12:55:13;4.00;;;1.70;;
22774;SDS011;11554;51.106;3.684;2022-09-01T13:00:13;4.00;;;1.70;;
22774;SDS011;11554;51.106;3.684;2022-09-01T13:10:00;4.50;;;1.50;;
22774;SDS011;11554;51.106;3.684;2022-09-01T13:15:00;5.50;;;2.00;;
22774;SDS011;11554;51.106;3.684;2022-09-01T13:20:00;5.50;;;2.00;;
22774;SDS011;11554;51.106;3.684;2022-09-01T13:25:00;4.50;;;1.80;;
22774;SDS011;11554;51.106;3.684;2022-09-01T13:30:00;4.50;;;1.80;;
22774;SDS011;11554;51.106;3.684;2022-09-01T13:35:00;5.60;;;1.70;;
22774;SDS011;11554;51.106;3.684;2022-09-01T13:40:00;5.60;;;1.70;;
22774;SDS011;11554;51.106;3.684;2022-09-01T13:45:00;5.40;;;1.70;;
22774;SDS011;11554;51.106;3.684;2022-09-01T13:50:00;5.40;;;1.70;;
22774;SDS011;11554;51.106;3.684;2022-09-01T13:55:00;4.70;;;1.50;;
22774;SDS011;11554;51.106;3.684;2022-09-01T14:00:00;4.70;;;1.50;;
22774;SDS011;11554;51.106;3.684;2022-09-01T14:05:00;4.20;;;1.60;;
22774;SDS011;11554;51.106;3.684;2022-09-01T14:10:00;4.20;;;1.60;;
22774;SDS011;11554;51.106;3.684;2022-09-01T14:15:00;5.60;;;1.60;;
22774;SDS011;11554;51.106;3.684;2022-09-01T14:20:00;5.60;;;1.60;;
22774;SDS011;11554;51.106;3.684;2022-09-01T14:25:00;4.90;;;1.60;;
22774;SDS011;11554;51.106;3.684;2022-09-01T14:30:00;4.90;;;1.60;;
22774;SDS011;11554;51.106;3.684;2022-09-01T14:35:00;4.90;;;1.60;;
22774;SDS011;11554;51.106;3.684;2022-09-01T14:40:00;4.90;;;1.60;;
22774;SDS011;11554;51.106;3.684;2022-09-01T14:45:00;4.20;;;1.80;;
22774;SDS011;11554;51.106;3.684;2022-09-01T14:50:00;4.20;;;1.80;;
22774;SDS011;11554;51.106;3.684;2022-09-01T14:55:00;4.70;;;2.00;;
22774;SDS011;11554;51.106;3.684;2022-09-01T15:00:00;4.70;;;2.00;;
22774;SDS011;11554;51.106;3.684;2022-09-01T15:05:00;5.90;;;2.00;;
22774;SDS011;11554;51.106;3.684;2022-09-01T15:10:01;5.90;;;2.00;;
22774;SDS011;11554;51.106;3.684;2022-09-01T15:15:00;3.40;;;1.60;;
22774;SDS011;11554;51.106;3.684;2022-09-01T15:20:02;3.40;;;1.60;;
22774;SDS011;11554;51.106;3.684;2022-09-01T15:25:00;2.80;;;1.80;;
22774;SDS011;11554;51.106;3.684;2022-09-01T15:30:00;2.80;;;1.80;;
22774;SDS011;11554;51.106;3.684;2022-09-01T15:35:00;5.10;;;2.10;;
22774;SDS011;11554;51.106;3.684;2022-09-01T15:40:00;5.10;;;2.10;;
22774;SDS011;11554;51.106;3.684;2022-09-01T15:45:01;4.10;;;2.00;;
22774;SDS011;11554;51.106;3.684;2022-09-01T15:50:02;4.10;;;2.00;;
22774;SDS011;11554;51.106;3.684;2022-09-01T15:55:01;10.00;;;2.20;;
22774;SDS011;11554;51.106;3.684;2022-09-01T16:00:00;10.00;;;2.20;;
22774;SDS011;11554;51.106;3.684;2022-09-01T16:05:00;7.50;;;2.00;;
22774;SDS011;11554;51.106;3.684;2022-09-01T16:10:00;7.50;;;2.00;;
22774;SDS011;11554;51.106;3.684;2022-09-01T16:15:00;5.00;;;2.20;;
22774;SDS011;11554;51.106;3.684;2022-09-01T16:20:03;5.00;;;2.20;;
22774;SDS011;11554;51.106;3.684;2022-09-01T16:25:06;4.40;;;1.90;;
22774;SDS011;11554;51.106;3.684;2022-09-01T16:30:03;4.40;;;1.90;;
22774;SDS011;11554;51.106;3.684;2022-09-01T16:35:00;4.70;;;1.60;;
22774;SDS011;11554;51.106;3.684;2022-09-01T16:40:07;4.70;;;1.60;;
22774;SDS011;11554;51.106;3.684;2022-09-01T16:45:04;5.60;;;1.80;;
22774;SDS011;11554;51.106;3.684;2022-09-01T16:50:08;5.60;;;1.80;;
22774;SDS011;11554;51.106;3.684;2022-09-01T16:55:15;5.10;;;2.10;;
22774;SDS011;11554;51.106;3.684;2022-09-01T17:00:03;5.10;;;2.10;;
22774;SDS011;11554;51.106;3.684;2022-09-01T17:05:08;6.40;;;1.70;;
22774;SDS011;11554;51.106;3.684;2022-09-01T17:10:03;6.40;;;1.70;;
22774;SDS011;11554;51.106;3.684;2022-09-01T17:15:05;5.20;;;1.90;;
22774;SDS011;11554;51.106;3.684;2022-09-01T17:20:00;5.20;;;1.90;;
22774;SDS011;11554;51.106;3.684;2022-09-01T17:25:02;5.40;;;1.50;;
22774;SDS011;11554;51.106;3.684;2022-09-01T17:30:01;5.40;;;1.50;;
22774;SDS011;11554;51.106;3.684;2022-09-01T17:35:08;11.60;;;2.40;;
22774;SDS011;11554;51.106;3.684;2022-09-01T17:40:08;11.60;;;2.40;;
22774;SDS011;11554;51.106;3.684;2022-09-01T17:45:10;14.00;;;2.60;;
22774;SDS011;11554;51.106;3.684;2022-09-01T17:50:07;14.00;;;2.60;;
22774;SDS011;11554;51.106;3.684;2022-09-01T17:55:06;11.00;;;2.50;;
22774;SDS011;11554;51.106;3.684;2022-09-01T18:00:06;11.00;;;2.50;;
22774;SDS011;11554;51.106;3.684;2022-09-01T18:05:07;11.50;;;2.40;;
22774;SDS011;11554;51.106;3.684;2022-09-01T18:10:04;11.50;;;2.40;;
22774;SDS011;11554;51.106;3.684;2022-09-01T18:15:03;5.10;;;2.10;;
22774;SDS011;11554;51.106;3.684;2022-09-01T18:20:05;5.10;;;2.10;;
22774;SDS011;11554;51.106;3.684;2022-09-01T18:25:04;11.70;;;2.40;;
22774;SDS011;11554;51.106;3.684;2022-09-01T18:30:00;11.70;;;2.40;;
22774;SDS011;11554;51.106;3.684;2022-09-01T18:35:10;10.80;;;2.20;;
22774;SDS011;11554;51.106;3.684;2022-09-01T18:40:08;10.80;;;2.20;;
22774;SDS011;11554;51.106;3.684;2022-09-01T18:45:05;9.70;;;2.00;;
22774;SDS011;11554;51.106;3.684;2022-09-01T18:50:06;9.70;;;2.00;;
22774;SDS011;11554;51.106;3.684;2022-09-01T18:55:03;5.30;;;2.20;;
22774;SDS011;11554;51.106;3.684;2022-09-01T19:00:07;5.30;;;2.20;;
22774;SDS011;11554;51.106;3.684;2022-09-01T19:05:03;7.00;;;2.60;;
22774;SDS011;11554;51.106;3.684;2022-09-01T19:10:06;7.00;;;2.60;;
22774;SDS011;11554;51.106;3.684;2022-09-01T19:15:06;7.10;;;2.30;;
22774;SDS011;11554;51.106;3.684;2022-09-01T19:20:03;7.10;;;2.30;;
22774;SDS011;11554;51.106;3.684;2022-09-01T19:25:04;6.90;;;2.10;;
22774;SDS011;11554;51.106;3.684;2022-09-01T19:30:03;6.90;;;2.10;;
22774;SDS011;11554;51.106;3.684;2022-09-01T19:35:06;8.90;;;1.80;;
22774;SDS011;11554;51.106;3.684;2022-09-01T19:40:00;8.90;;;1.80;;
22774;SDS011;11554;51.106;3.684;2022-09-01T19:45:04;9.10;;;1.90;;
22774;SDS011;11554;51.106;3.684;2022-09-01T19:50:09;9.10;;;1.90;;
22774;SDS011;11554;51.106;3.684;2022-09-01T19:55:05;6.10;;;1.50;;
22774;SDS011;11554;51.106;3.684;2022-09-01T20:00:07;6.10;;;1.50;;
22774;SDS011;11554;51.106;3.684;2022-09-01T20:05:06;6.80;;;1.90;;
22774;SDS011;11554;51.106;3.684;2022-09-01T20:10:15;6.80;;;1.90;;
22774;SDS011;11554;51.106;3.684;2022-09-01T20:15:11;9.50;;;1.60;;
22774;SDS011;11554;51.106;3.684;2022-09-01T20:20:06;9.50;;;1.60;;
22774;SDS011;11554;51.106;3.684;2022-09-01T20:25:03;6.10;;;1.30;;
22774;SDS011;11554;51.106;3.684;2022-09-01T20:30:03;6.10;;;1.30;;
22774;SDS011;11554;51.106;3.684;2022-09-01T20:35:06;6.40;;;1.30;;
22774;SDS011;11554;51.106;3.684;2022-09-01T20:40:05;6.40;;;1.30;;
22774;SDS011;11554;51.106;3.684;2022-09-01T20:45:09;7.20;;;1.70;;
22774;SDS011;11554;51.106;3.684;2022-09-01T20:50:09;7.20;;;1.70;;
22774;SDS011;11554;51.106;3.684;2022-09-01T20:55:08;4.20;;;1.50;;
22774;SDS011;11554;51.106;3.684;2022-09-01T21:00:06;4.20;;;1.50;;
22774;SDS011;11554;51.106;3.684;2022-09-01T21:05:05;11.60;;;1.70;;
22774;SDS011;11554;51.106;3.684;2022-09-01T21:10:06;11.60;;;1.70;;
22774;SDS011;11554;51.106;3.684;2022-09-01T21:20:09;17.10;;;2.00;;
22774;SDS011;11554;51.106;3.684;2022-09-01T21:25:00;9.60;;;1.80;;
22774;SDS011;11554;51.106;3.684;2022-09-01T21:30:03;9.60;;;1.80;;
22774;SDS011;11554;51.106;3.684;2022-09-01T21:35:03;5.50;;;1.20;;
22774;SDS011;11554;51.106;3.684;2022-09-01T21:40:00;5.50;;;1.20;;
22774;SDS011;11554;51.106;3.684;2022-09-01T21:45:01;4.30;;;1.30;;
22774;SDS011;11554;51.106;3.684;2022-09-01T21:50:00;4.30;;;1.30;;
22774;SDS011;11554;51.106;3.684;2022-09-01T21:55:00;8.40;;;1.30;;
22774;SDS011;11554;51.106;3.684;2022-09-01T22:00:00;8.40;;;1.30;;
22774;SDS011;11554;51.106;3.684;2022-09-01T22:05:00;9.00;;;1.70;;
22774;SDS011;11554;51.106;3.684;2022-09-01T22:10:00;9.00;;;1.70;;
22774;SDS011;11554;51.106;3.684;2022-09-01T22:15:00;19.60;;;2.00;;
22774;SDS011;11554;51.106;3.684;2022-09-01T22:20:00;19.60;;;2.00;;
22774;SDS011;11554;51.106;3.684;2022-09-01T22:25:03;21.20;;;2.50;;
22774;SDS011;11554;51.106;3.684;2022-09-01T22:30:00;21.20;;;2.50;;
22774;SDS011;11554;51.106;3.684;2022-09-01T22:35:00;10.10;;;1.90;;
22774;SDS011;11554;51.106;3.684;2022-09-01T22:40:00;10.10;;;1.90;;
22774;SDS011;11554;51.106;3.684;2022-09-01T22:45:00;9.90;;;2.00;;
22774;SDS011;11554;51.106;3.684;2022-09-01T22:50:00;9.90;;;2.00;;
22774;SDS011;11554;51.106;3.684;2022-09-01T22:55:00;7.20;;;2.20;;
22774;SDS011;11554;51.106;3.684;2022-09-01T23:00:00;7.20;;;2.20;;
22774;SDS011;11554;51.106;3.684;2022-09-01T23:05:00;12.30;;;2.80;;
22774;SDS011;11554;51.106;3.684;2022-09-01T23:10:00;12.30;;;2.80;;
22774;SDS011;11554;51.106;3.684;2022-09-01T23:15:00;6.70;;;2.40;;
22774;SDS011;11554;51.106;3.684;2022-09-01T23:20:00;6.70;;;2.40;;
22774;SDS011;11554;51.106;3.684;2022-09-01T23:25:00;8.20;;;2.60;;
22774;SDS011;11554;51.106;3.684;2022-09-01T23:30:00;8.20;;;2.60;;
22774;SDS011;11554;51.106;3.684;2022-09-01T23:35:00;7.90;;;2.90;;
22774;SDS011;11554;51.106;3.684;2022-09-01T23:40:02;7.90;;;2.90;;
22774;SDS011;11554;51.106;3.684;2022-09-01T23:45:00;5.00;;;2.60;;
22774;SDS011;11554;51.106;3.684;2022-09-01T23:50:00;5.00;;;2.60;;
22774;SDS011;11554;51.106;3.684;2022-09-01T23:55:00;8.10;;;2.80;;
